createdAt,value
2019-04-10T00:00:15.526Z,2.99
2019-04-10T00:01:15.528Z,2.95
2019-04-10T00:02:15.543Z,2.99
2019-04-10T00:03:25.534Z,3.03
2019-04-10T00:04:15.558Z,3.05
2019-04-10T00:05:15.891Z,3.06
2019-04-10T00:06:17.901Z,3.00
2019-04-10T00:07:18.076Z,3.05
2019-04-10T00:08:15.590Z,3.05
2019-04-10T00:09:15.606Z,3.06
2019-04-10T00:10:15.988Z,3.08
2019-04-10T00:11:16.567Z,3.02
2019-04-10T00:12:15.779Z,3.05
2019-04-10T00:13:15.634Z,3.02
2019-04-10T00:14:16.430Z,3.03
2019-04-10T00:15:17.450Z,3.05
2019-04-10T00:16:15.967Z,3.05
2019-04-10T00:17:16.557Z,3.00
2019-04-10T00:18:15.949Z,2.97
2019-04-10T00:19:15.687Z,3.00
2019-04-10T00:20:16.289Z,2.99
2019-04-10T00:21:15.703Z,3.00
2019-04-10T00:22:15.713Z,3.03
2019-04-10T00:23:15.720Z,2.97
2019-04-10T00:24:15.728Z,2.99
2019-04-10T00:25:16.769Z,3.03
2019-04-10T00:26:15.747Z,2.99
2019-04-10T00:27:16.674Z,3.02
2019-04-10T00:28:15.765Z,3.00
2019-04-10T00:29:16.154Z,3.05
2019-04-10T00:30:16.627Z,3.02
2019-04-10T00:31:15.857Z,3.06
2019-04-10T00:32:16.110Z,3.08
2019-04-10T00:33:16.593Z,3.06
2019-04-10T00:34:15.817Z,3.06
2019-04-10T00:35:15.834Z,3.03
2019-04-10T00:36:16.195Z,3.02
2019-04-10T00:37:23.832Z,3.00
2019-04-10T00:38:15.850Z,3.00
2019-04-10T00:39:15.863Z,3.00
2019-04-10T00:40:15.871Z,2.95
2019-04-10T00:41:16.329Z,2.90
2019-04-10T00:42:16.819Z,2.90
2019-04-10T00:43:16.956Z,2.87
2019-04-10T00:44:15.903Z,2.92
2019-04-10T00:45:15.914Z,2.85
2019-04-10T00:46:15.928Z,2.89
2019-04-10T00:47:16.852Z,2.90
2019-04-10T00:48:15.940Z,2.90
2019-04-10T00:49:15.951Z,2.87
2019-04-10T00:50:15.958Z,2.85
2019-04-10T00:51:15.969Z,2.90
2019-04-10T00:52:16.338Z,2.93
2019-04-10T00:53:16.947Z,2.89
2019-04-10T00:54:16.125Z,2.92
2019-04-10T00:55:15.998Z,2.90
2019-04-10T00:56:16.595Z,2.85
2019-04-10T00:57:16.976Z,2.81
2019-04-10T00:58:16.253Z,2.93
2019-04-10T00:59:16.038Z,2.90
2019-04-10T01:00:16.922Z,2.87
2019-04-10T01:01:16.050Z,2.78
2019-04-10T01:02:16.480Z,2.81
2019-04-10T01:03:16.071Z,2.84
2019-04-10T01:04:16.126Z,2.85
2019-04-10T01:05:16.091Z,2.78
2019-04-10T01:06:16.109Z,2.82
2019-04-10T01:07:16.889Z,2.66
2019-04-10T01:08:16.160Z,2.54
2019-04-10T01:09:16.118Z,2.63
2019-04-10T01:10:16.128Z,2.53
2019-04-10T01:11:17.102Z,2.48
2019-04-10T01:12:16.148Z,2.43
2019-04-10T01:13:16.740Z,2.36
2019-04-10T01:14:16.163Z,2.35
2019-04-10T01:15:16.268Z,2.28
2019-04-10T01:16:16.459Z,2.30
2019-04-10T01:17:16.199Z,2.36
2019-04-10T01:18:17.121Z,2.34
2019-04-10T01:19:16.207Z,2.35
2019-04-10T01:20:16.215Z,2.38
2019-04-10T01:21:16.222Z,2.36
2019-04-10T01:22:17.028Z,2.38
2019-04-10T01:23:16.237Z,2.38
2019-04-10T01:24:16.252Z,2.38
2019-04-10T01:25:16.553Z,2.41
2019-04-10T01:26:16.269Z,2.41
2019-04-10T01:27:16.270Z,2.39
2019-04-10T01:28:16.403Z,2.49
2019-04-10T01:29:16.291Z,2.48
2019-04-10T01:30:16.298Z,2.48
2019-04-10T01:31:17.143Z,2.39
2019-04-10T01:32:17.221Z,2.39
2019-04-10T01:33:16.559Z,2.46
2019-04-10T01:34:17.053Z,2.48
2019-04-10T01:35:16.341Z,2.42
2019-04-10T01:36:16.348Z,2.42
2019-04-10T01:37:16.647Z,2.39
2019-04-10T01:38:17.518Z,2.36
2019-04-10T01:39:16.369Z,2.41
2019-04-10T01:40:17.111Z,2.35
2019-04-10T01:41:17.343Z,2.35
2019-04-10T01:42:16.582Z,2.39
2019-04-10T01:43:18.946Z,2.35
2019-04-10T01:44:16.413Z,2.27
2019-04-10T01:45:17.427Z,2.34
2019-04-10T01:46:16.429Z,2.30
2019-04-10T01:47:17.214Z,2.34
2019-04-10T01:48:17.438Z,2.24
2019-04-10T01:49:17.452Z,2.20
2019-04-10T01:50:16.467Z,2.23
2019-04-10T01:51:17.184Z,2.21
2019-04-10T01:52:17.235Z,2.20
2019-04-10T01:53:17.419Z,2.23
2019-04-10T01:54:17.238Z,2.21
2019-04-10T01:55:24.210Z,2.20
2019-04-10T01:56:25.128Z,2.17
2019-04-10T01:57:16.717Z,2.18
2019-04-10T01:58:16.988Z,2.14
2019-04-10T01:59:16.535Z,2.17
2019-04-10T02:00:16.540Z,2.20
2019-04-10T02:01:16.597Z,2.16
2019-04-10T02:02:16.895Z,2.18
2019-04-10T02:03:16.567Z,2.09
2019-04-10T02:04:16.574Z,2.20
2019-04-10T02:05:16.647Z,2.17
2019-04-10T02:06:16.861Z,2.14
2019-04-10T02:07:16.603Z,2.21
2019-04-10T02:08:17.841Z,2.17
2019-04-10T02:09:16.612Z,2.16
2019-04-10T02:10:17.058Z,2.14
2019-04-10T02:11:17.523Z,2.14
2019-04-10T02:12:16.796Z,2.12
2019-04-10T02:13:17.126Z,2.18
2019-04-10T02:14:16.659Z,2.18
2019-04-10T02:15:17.735Z,2.23
2019-04-10T02:16:16.774Z,2.09
2019-04-10T02:17:16.858Z,2.10
2019-04-10T02:18:17.254Z,2.17
2019-04-10T02:19:16.693Z,2.12
2019-04-10T02:20:16.852Z,2.20
2019-04-10T02:21:17.894Z,2.17
2019-04-10T02:22:16.719Z,2.12
2019-04-10T02:23:16.726Z,2.20
2019-04-10T02:24:16.770Z,2.12
2019-04-10T02:25:17.836Z,2.18
2019-04-10T02:26:17.077Z,2.18
2019-04-10T02:27:16.756Z,2.18
2019-04-10T02:28:16.764Z,2.18
2019-04-10T02:29:17.657Z,2.03
2019-04-10T02:30:19.142Z,2.05
2019-04-10T02:31:16.791Z,2.09
2019-04-10T02:32:18.775Z,2.00
2019-04-10T02:33:17.856Z,2.03
2019-04-10T02:34:17.392Z,2.10
2019-04-10T02:35:19.541Z,2.05
2019-04-10T02:36:17.340Z,2.05
2019-04-10T02:37:17.120Z,2.07
2019-04-10T02:38:35.775Z,2.05
2019-04-10T02:39:25.647Z,2.02
2019-04-10T02:40:17.112Z,2.03
2019-04-10T02:41:17.413Z,1.99
2019-04-10T02:42:18.453Z,2.00
2019-04-10T02:43:16.898Z,2.06
2019-04-10T02:44:18.501Z,2.03
2019-04-10T02:45:18.586Z,2.03
2019-04-10T02:46:16.913Z,2.03
2019-04-10T02:47:17.165Z,2.03
2019-04-10T02:48:17.178Z,2.05
2019-04-10T02:49:18.480Z,2.06
2019-04-10T02:50:18.649Z,2.05
2019-04-10T02:51:17.581Z,2.07
2019-04-10T02:52:16.961Z,2.09
2019-04-10T02:53:16.983Z,2.03
2019-04-10T02:54:17.540Z,2.03
2019-04-10T02:55:18.540Z,2.02
2019-04-10T02:56:18.047Z,1.95
2019-04-10T02:57:17.458Z,1.87
2019-04-10T02:58:18.713Z,1.95
2019-04-10T02:59:18.529Z,1.93
2019-04-10T03:00:18.074Z,1.91
2019-04-10T03:01:17.474Z,1.90
2019-04-10T03:02:17.039Z,1.84
2019-04-10T03:03:18.070Z,1.99
2019-04-10T03:04:18.340Z,1.90
2019-04-10T03:05:17.801Z,1.90
2019-04-10T03:06:18.741Z,1.83
2019-04-10T03:07:17.730Z,2.00
2019-04-10T03:08:17.471Z,1.98
2019-04-10T03:09:32.267Z,1.88
2019-04-10T03:10:25.289Z,1.83
2019-04-10T03:11:19.507Z,1.86
2019-04-10T03:12:17.112Z,1.93
2019-04-10T03:13:17.871Z,1.83
2019-04-10T03:14:18.783Z,1.93
2019-04-10T03:15:18.985Z,1.88
2019-04-10T03:16:17.716Z,1.81
2019-04-10T03:17:17.723Z,1.86
2019-04-10T03:18:17.160Z,1.81
2019-04-10T03:19:17.168Z,1.86
2019-04-10T03:20:18.314Z,1.84
2019-04-10T03:21:17.187Z,1.77
2019-04-10T03:22:17.190Z,1.77
2019-04-10T03:23:17.633Z,1.77
2019-04-10T03:24:17.206Z,1.77
2019-04-10T03:25:18.365Z,1.73
2019-04-10T03:26:17.333Z,1.73
2019-04-10T03:27:19.083Z,1.76
2019-04-10T03:28:17.240Z,1.81
2019-04-10T03:29:17.812Z,1.79
2019-04-10T03:30:18.479Z,1.79
2019-04-10T03:31:17.268Z,1.73
2019-04-10T03:32:18.801Z,1.73
2019-04-10T03:33:21.756Z,1.76
2019-04-10T03:34:20.880Z,1.80
2019-04-10T03:35:17.295Z,1.73
2019-04-10T03:36:17.300Z,1.77
2019-04-10T03:37:18.144Z,1.66
2019-04-10T03:38:18.312Z,1.77
2019-04-10T03:39:17.514Z,1.79
2019-04-10T03:40:17.463Z,1.73
2019-04-10T03:41:17.775Z,1.80
2019-04-10T03:42:17.350Z,1.81
2019-04-10T03:43:17.557Z,1.81
2019-04-10T03:44:17.365Z,1.73
2019-04-10T03:45:17.372Z,1.79
2019-04-10T03:46:17.383Z,1.77
2019-04-10T03:47:17.528Z,1.77
2019-04-10T03:48:17.393Z,1.69
2019-04-10T03:49:17.828Z,1.68
2019-04-10T03:50:18.378Z,1.68
2019-04-10T03:51:18.555Z,1.76
2019-04-10T03:52:17.427Z,1.66
2019-04-10T03:53:18.088Z,1.72
2019-04-10T03:54:18.592Z,1.76
2019-04-10T03:55:17.448Z,1.72
2019-04-10T03:56:18.013Z,1.66
2019-04-10T03:57:18.415Z,1.65
2019-04-10T03:58:17.625Z,1.65
2019-04-10T03:59:17.477Z,1.60
2019-04-10T04:00:18.115Z,1.62
2019-04-10T04:01:18.372Z,1.62
2019-04-10T04:02:17.763Z,1.62
2019-04-10T04:03:18.303Z,1.59
2019-04-10T04:04:17.608Z,1.68
2019-04-10T04:05:18.301Z,1.65
2019-04-10T04:06:17.652Z,1.54
2019-04-10T04:07:17.562Z,1.51
2019-04-10T04:08:17.548Z,1.59
2019-04-10T04:09:17.714Z,1.51
2019-04-10T04:10:18.289Z,1.63
2019-04-10T04:11:17.642Z,1.58
2019-04-10T04:12:18.130Z,1.59
2019-04-10T04:13:17.586Z,1.63
2019-04-10T04:14:17.593Z,1.63
2019-04-10T04:15:17.802Z,1.66
2019-04-10T04:16:17.607Z,1.55
2019-04-10T04:17:17.614Z,1.55
2019-04-10T04:18:17.625Z,1.55
2019-04-10T04:19:17.757Z,1.58
2019-04-10T04:20:17.638Z,1.60
2019-04-10T04:21:17.647Z,1.48
2019-04-10T04:22:18.646Z,1.50
2019-04-10T04:23:17.665Z,1.50
2019-04-10T04:24:17.912Z,1.50
2019-04-10T04:25:17.675Z,1.50
2019-04-10T04:26:17.683Z,1.51
2019-04-10T04:27:18.911Z,1.52
2019-04-10T04:28:18.831Z,1.50
2019-04-10T04:29:18.479Z,1.51
2019-04-10T04:30:17.724Z,1.48
2019-04-10T04:31:18.152Z,1.55
2019-04-10T04:32:17.742Z,1.50
2019-04-10T04:33:17.740Z,1.54
2019-04-10T04:34:18.679Z,1.54
2019-04-10T04:35:17.751Z,1.51
2019-04-10T04:36:18.272Z,1.60
2019-04-10T04:37:18.739Z,1.50
2019-04-10T04:38:17.875Z,1.52
2019-04-10T04:39:25.681Z,1.54
2019-04-10T04:40:17.791Z,1.47
2019-04-10T04:41:17.800Z,1.45
2019-04-10T04:42:17.804Z,1.41
2019-04-10T04:43:18.716Z,1.45
2019-04-10T04:44:18.128Z,1.48
2019-04-10T04:45:17.827Z,1.44
2019-04-10T04:46:18.394Z,1.44
2019-04-10T04:47:18.198Z,1.42
2019-04-10T04:48:17.855Z,1.50
2019-04-10T04:49:18.192Z,1.47
2019-04-10T04:50:17.914Z,1.45
2019-04-10T04:51:17.872Z,1.45
2019-04-10T04:52:18.339Z,1.42
2019-04-10T04:53:18.365Z,1.40
2019-04-10T04:54:17.894Z,1.37
2019-04-10T04:55:17.903Z,1.32
2019-04-10T04:56:17.941Z,1.34
2019-04-10T04:57:17.921Z,1.37
2019-04-10T04:58:18.120Z,1.37
2019-04-10T04:59:18.426Z,1.40
2019-04-10T05:00:17.939Z,1.34
2019-04-10T05:01:18.971Z,1.37
2019-04-10T05:02:17.958Z,1.37
2019-04-10T05:03:18.561Z,1.48
2019-04-10T05:04:17.972Z,1.47
2019-04-10T05:05:18.518Z,1.42
2019-04-10T05:06:18.154Z,1.44
2019-04-10T05:07:17.991Z,1.47
2019-04-10T05:08:18.002Z,1.40
2019-04-10T05:09:29.868Z,1.45
2019-04-10T05:10:18.017Z,1.50
2019-04-10T05:11:18.333Z,1.42
2019-04-10T05:12:18.148Z,1.52
2019-04-10T05:13:18.048Z,1.41
2019-04-10T05:14:18.042Z,1.45
2019-04-10T05:15:18.516Z,1.41
2019-04-10T05:16:18.656Z,1.47
2019-04-10T05:17:18.376Z,1.55
2019-04-10T05:18:19.057Z,1.52
2019-04-10T05:19:19.016Z,1.45
2019-04-10T05:20:19.002Z,1.51
2019-04-10T05:21:19.080Z,1.52
2019-04-10T05:22:18.763Z,1.47
2019-04-10T05:23:18.112Z,1.44
2019-04-10T05:24:18.121Z,1.51
2019-04-10T05:25:19.021Z,1.48
2019-04-10T05:26:18.692Z,1.58
2019-04-10T05:27:18.188Z,1.48
2019-04-10T05:28:18.992Z,1.55
2019-04-10T05:29:18.333Z,1.48
2019-04-10T05:30:18.393Z,1.47
2019-04-10T05:31:19.274Z,1.51
2019-04-10T05:32:18.174Z,1.51
2019-04-10T05:33:18.384Z,1.47
2019-04-10T05:34:18.189Z,1.48
2019-04-10T05:35:19.228Z,1.55
2019-04-10T05:36:18.211Z,1.47
2019-04-10T05:37:19.129Z,1.45
2019-04-10T05:38:18.759Z,1.48
2019-04-10T05:39:18.982Z,1.51
2019-04-10T05:40:18.238Z,1.48
2019-04-10T05:41:18.245Z,1.50
2019-04-10T05:42:18.254Z,1.51
2019-04-10T05:43:18.264Z,1.48
2019-04-10T05:44:18.264Z,1.47
2019-04-10T05:45:18.275Z,1.48
2019-04-10T05:46:18.574Z,1.50
2019-04-10T05:47:19.258Z,1.51
2019-04-10T05:48:21.038Z,1.50
2019-04-10T05:49:18.300Z,1.60
2019-04-10T05:50:19.379Z,1.63
2019-04-10T05:51:19.170Z,1.68
2019-04-10T05:52:18.355Z,1.68
2019-04-10T05:53:18.499Z,1.65
2019-04-10T05:54:19.226Z,1.66
2019-04-10T05:55:18.379Z,1.69
2019-04-10T05:56:19.176Z,1.69
2019-04-10T05:57:18.364Z,1.70
2019-04-10T05:58:19.549Z,1.66
2019-04-10T05:59:19.514Z,1.79
2019-04-10T06:00:18.845Z,1.69
2019-04-10T06:01:29.972Z,1.73
2019-04-10T06:02:18.399Z,1.76
2019-04-10T06:03:18.634Z,1.80
2019-04-10T06:04:18.984Z,1.83
2019-04-10T06:05:18.419Z,1.84
2019-04-10T06:06:18.430Z,1.83
2019-04-10T06:07:19.141Z,1.84
2019-04-10T06:08:18.446Z,1.81
2019-04-10T06:09:18.502Z,1.88
2019-04-10T06:10:19.537Z,1.88
2019-04-10T06:11:18.467Z,1.87
2019-04-10T06:12:18.475Z,1.88
2019-04-10T06:13:19.333Z,1.87
2019-04-10T06:14:18.498Z,1.84
2019-04-10T06:15:19.083Z,1.90
2019-04-10T06:16:19.485Z,1.99
2019-04-10T06:17:18.510Z,1.88
2019-04-10T06:18:18.824Z,1.87
2019-04-10T06:19:18.532Z,1.86
2019-04-10T06:20:18.534Z,2.00
2019-04-10T06:21:18.858Z,2.03
2019-04-10T06:22:18.742Z,2.05
2019-04-10T06:23:19.174Z,2.05
2019-04-10T06:24:18.567Z,2.05
2019-04-10T06:25:19.704Z,2.18
2019-04-10T06:26:19.878Z,2.10
2019-04-10T06:27:18.619Z,2.30
2019-04-10T06:28:18.597Z,2.27
2019-04-10T06:29:19.191Z,2.28
2019-04-10T06:30:19.706Z,2.30
2019-04-10T06:31:18.729Z,2.24
2019-04-10T06:32:19.171Z,2.35
2019-04-10T06:33:18.635Z,2.39
2019-04-10T06:34:18.943Z,2.43
2019-04-10T06:35:19.690Z,2.39
2019-04-10T06:36:19.523Z,2.41
2019-04-10T06:37:18.743Z,2.45
2019-04-10T06:38:19.012Z,2.43
2019-04-10T06:39:18.679Z,2.56
2019-04-10T06:40:21.306Z,2.59
2019-04-10T06:41:19.212Z,2.42
2019-04-10T06:42:18.707Z,2.57
2019-04-10T06:43:19.104Z,2.45
2019-04-10T06:44:19.561Z,2.63
2019-04-10T06:45:19.768Z,2.66
2019-04-10T06:46:18.736Z,2.69
2019-04-10T06:47:18.745Z,2.81
2019-04-10T06:48:19.258Z,2.66
2019-04-10T06:49:18.759Z,2.63
2019-04-10T06:50:19.029Z,2.59
2019-04-10T06:51:20.290Z,2.61
2019-04-10T06:52:18.783Z,2.77
2019-04-10T06:53:18.799Z,2.77
2019-04-10T06:54:18.800Z,2.75
2019-04-10T06:55:18.805Z,2.74
2019-04-10T06:56:18.813Z,2.78
2019-04-10T06:57:18.819Z,2.78
2019-04-10T06:58:20.014Z,2.77
2019-04-10T06:59:19.130Z,2.79
2019-04-10T07:00:19.779Z,2.89
2019-04-10T07:01:20.987Z,2.99
2019-04-10T07:02:25.607Z,2.81
2019-04-10T07:03:18.971Z,2.75
2019-04-10T07:04:21.956Z,2.74
2019-04-10T07:05:19.899Z,2.81
2019-04-10T07:06:21.889Z,2.85
2019-04-10T07:07:21.773Z,2.90
2019-04-10T07:08:22.192Z,3.03
2019-04-10T07:09:21.367Z,2.93
2019-04-10T07:10:27.330Z,2.99
2019-04-10T07:11:21.688Z,3.06
2019-04-10T07:12:18.934Z,3.05
2019-04-10T07:13:19.718Z,3.08
2019-04-10T07:14:18.945Z,3.08
2019-04-10T07:15:22.359Z,3.05
2019-04-10T07:16:20.013Z,3.05
2019-04-10T07:17:19.948Z,3.11
2019-04-10T07:18:20.672Z,3.11
2019-04-10T07:19:19.835Z,3.13
2019-04-10T07:20:20.673Z,3.10
2019-04-10T07:21:20.071Z,3.17
2019-04-10T07:22:19.006Z,3.17
2019-04-10T07:23:24.135Z,3.24
2019-04-10T07:24:19.021Z,3.20
2019-04-10T07:25:19.611Z,3.39
2019-04-10T07:26:27.896Z,3.35
2019-04-10T07:27:19.493Z,3.45
2019-04-10T07:28:19.527Z,3.43
2019-04-10T07:29:21.012Z,3.40
2019-04-10T07:30:19.450Z,3.32
2019-04-10T07:31:19.378Z,3.42
2019-04-10T07:32:19.474Z,3.42
2019-04-10T07:33:19.959Z,3.40
2019-04-10T07:34:23.885Z,3.36
2019-04-10T07:35:21.451Z,3.21
2019-04-10T07:36:20.276Z,3.43
2019-04-10T07:37:21.668Z,3.54
2019-04-10T07:38:21.202Z,3.61
2019-04-10T07:39:19.143Z,3.79
2019-04-10T07:40:19.143Z,3.94
2019-04-10T07:41:21.906Z,3.90
2019-04-10T07:42:26.973Z,3.90
2019-04-10T07:43:25.471Z,4.11
2019-04-10T07:44:19.174Z,4.09
2019-04-10T07:45:19.185Z,4.08
2019-04-10T07:46:19.189Z,4.12
2019-04-10T07:47:19.612Z,4.15
2019-04-10T07:48:19.208Z,4.27
2019-04-10T07:49:20.545Z,4.22
2019-04-10T07:50:19.223Z,4.36
2019-04-10T07:51:19.234Z,4.32
2019-04-10T07:52:21.031Z,4.33
2019-04-10T07:53:19.248Z,4.26
2019-04-10T07:54:21.234Z,4.18
2019-04-10T07:55:19.268Z,4.05
2019-04-10T07:56:20.888Z,4.08
2019-04-10T07:57:20.272Z,4.12
2019-04-10T07:58:19.515Z,4.33
2019-04-10T07:59:19.292Z,4.33
2019-04-10T08:00:20.124Z,4.33
2019-04-10T08:01:19.311Z,4.24
2019-04-10T08:02:19.315Z,4.29
2019-04-10T08:03:19.331Z,4.33
2019-04-10T08:04:20.317Z,4.44
2019-04-10T08:05:19.343Z,4.51
2019-04-10T08:06:19.960Z,4.70
2019-04-10T08:07:26.619Z,4.97
2019-04-10T08:08:19.465Z,4.50
2019-04-10T08:09:19.376Z,4.34
2019-04-10T08:10:20.006Z,4.42
2019-04-10T08:11:19.748Z,4.60
2019-04-10T08:12:19.397Z,4.84
2019-04-10T08:13:20.354Z,4.78
2019-04-10T08:14:19.659Z,4.97
2019-04-10T08:15:19.424Z,4.99
2019-04-10T08:16:19.430Z,4.99
2019-04-10T08:17:19.696Z,4.94
2019-04-10T08:18:19.452Z,4.92
2019-04-10T08:19:19.459Z,4.94
2019-04-10T08:20:19.464Z,4.82
2019-04-10T08:21:19.798Z,5.07
2019-04-10T08:22:20.178Z,4.88
2019-04-10T08:23:19.780Z,4.63
2019-04-10T08:24:20.280Z,4.69
2019-04-10T08:25:19.544Z,4.99
2019-04-10T08:26:21.250Z,4.85
2019-04-10T08:27:19.525Z,5.38
2019-04-10T08:28:19.829Z,5.65
2019-04-10T08:29:19.541Z,5.54
2019-04-10T08:30:19.631Z,5.53
2019-04-10T08:31:19.554Z,5.61
2019-04-10T08:32:19.567Z,5.68
2019-04-10T08:33:19.616Z,5.67
2019-04-10T08:34:19.581Z,5.56
2019-04-10T08:35:20.799Z,5.64
2019-04-10T08:36:19.599Z,5.91
2019-04-10T08:37:20.642Z,6.04
2019-04-10T08:38:19.668Z,6.17
2019-04-10T08:39:31.756Z,6.14
2019-04-10T08:40:19.632Z,6.00
2019-04-10T08:41:19.641Z,5.93
2019-04-10T08:42:19.651Z,5.76
2019-04-10T08:43:20.178Z,5.71
2019-04-10T08:44:19.962Z,5.64
2019-04-10T08:45:20.907Z,5.61
2019-04-10T08:46:19.880Z,5.63
2019-04-10T08:47:19.695Z,5.68
2019-04-10T08:48:19.810Z,5.49
2019-04-10T08:49:21.298Z,5.38
2019-04-10T08:50:19.836Z,5.38
2019-04-10T08:51:19.727Z,5.54
2019-04-10T08:52:19.973Z,5.60
2019-04-10T08:53:20.117Z,5.82
2019-04-10T08:54:20.397Z,5.78
2019-04-10T08:55:19.785Z,5.79
2019-04-10T08:56:20.470Z,5.75
2019-04-10T08:57:19.785Z,5.74
2019-04-10T08:58:20.813Z,5.82
2019-04-10T08:59:19.801Z,6.00
2019-04-10T09:00:20.668Z,6.18
2019-04-10T09:01:20.836Z,6.06
2019-04-10T09:02:20.116Z,6.21
2019-04-10T09:03:19.841Z,6.19
2019-04-10T09:04:19.852Z,6.22
2019-04-10T09:05:19.855Z,6.25
2019-04-10T09:06:19.869Z,6.37
2019-04-10T09:07:20.067Z,6.19
2019-04-10T09:08:21.070Z,6.37
2019-04-10T09:09:19.892Z,6.38
2019-04-10T09:10:20.561Z,6.38
2019-04-10T09:11:26.564Z,6.36
2019-04-10T09:12:19.925Z,6.34
2019-04-10T09:13:20.179Z,6.28
2019-04-10T09:14:21.065Z,6.49
2019-04-10T09:15:19.950Z,6.80
2019-04-10T09:16:20.429Z,6.70
2019-04-10T09:17:19.973Z,6.62
2019-04-10T09:18:20.980Z,6.69
2019-04-10T09:19:20.438Z,6.62
2019-04-10T09:20:19.998Z,6.69
2019-04-10T09:21:20.006Z,6.85
2019-04-10T09:22:20.482Z,6.79
2019-04-10T09:23:32.999Z,6.76
2019-04-10T09:24:20.037Z,6.89
2019-04-10T09:25:20.045Z,7.03
2019-04-10T09:26:20.330Z,6.94
2019-04-10T09:27:21.215Z,7.06
2019-04-10T09:28:20.171Z,7.13
2019-04-10T09:29:21.864Z,7.05
2019-04-10T09:30:20.486Z,7.13
2019-04-10T09:31:20.105Z,7.35
2019-04-10T09:32:20.216Z,7.49
2019-04-10T09:33:24.905Z,7.49
2019-04-10T09:34:20.134Z,7.74
2019-04-10T09:35:20.455Z,7.46
2019-04-10T09:36:20.160Z,7.40
2019-04-10T09:37:20.167Z,7.69
2019-04-10T09:38:20.941Z,7.82
2019-04-10T09:39:20.209Z,7.74
2019-04-10T09:40:20.483Z,7.92
2019-04-10T09:41:20.215Z,7.60
2019-04-10T09:42:21.439Z,7.58
2019-04-10T09:43:21.021Z,7.58
2019-04-10T09:44:20.833Z,7.63
2019-04-10T09:45:20.250Z,7.77
2019-04-10T09:46:20.435Z,7.35
2019-04-10T09:47:20.591Z,7.55
2019-04-10T09:48:20.282Z,7.61
2019-04-10T09:49:31.673Z,7.77
2019-04-10T09:50:21.301Z,7.37
2019-04-10T09:51:21.363Z,7.35
2019-04-10T09:52:20.318Z,7.57
2019-04-10T09:53:21.140Z,7.97
2019-04-10T09:54:20.341Z,7.83
2019-04-10T09:55:20.355Z,8.01
2019-04-10T09:56:21.394Z,8.28
2019-04-10T09:57:20.374Z,8.50
2019-04-10T09:58:20.384Z,8.37
2019-04-10T09:59:32.112Z,8.50
2019-04-10T10:00:21.347Z,8.52
2019-04-10T10:01:20.413Z,7.74
2019-04-10T10:02:20.432Z,7.83
2019-04-10T10:03:20.655Z,8.07
2019-04-10T10:04:21.376Z,8.44
2019-04-10T10:05:20.463Z,8.59
2019-04-10T10:06:27.084Z,8.28
2019-04-10T10:07:20.765Z,7.98
2019-04-10T10:08:20.514Z,8.16
2019-04-10T10:09:20.499Z,8.30
2019-04-10T10:10:20.701Z,8.04
2019-04-10T10:11:20.519Z,8.33
2019-04-10T10:12:20.533Z,7.95
2019-04-10T10:13:21.386Z,7.83
2019-04-10T10:14:20.957Z,7.75
2019-04-10T10:15:21.088Z,7.80
2019-04-10T10:16:21.007Z,8.12
2019-04-10T10:17:20.585Z,8.38
2019-04-10T10:18:21.398Z,8.76
2019-04-10T10:19:21.662Z,8.79
2019-04-10T10:20:21.719Z,8.62
2019-04-10T10:21:20.767Z,8.91
2019-04-10T10:22:21.021Z,8.98
2019-04-10T10:23:20.655Z,9.42
2019-04-10T10:24:20.669Z,9.23
2019-04-10T10:25:21.536Z,9.47
2019-04-10T10:26:20.707Z,9.51
2019-04-10T10:27:21.964Z,9.20
2019-04-10T10:28:20.839Z,8.77
2019-04-10T10:29:21.720Z,9.08
2019-04-10T10:30:20.736Z,8.53
2019-04-10T10:31:20.741Z,8.73
2019-04-10T10:32:21.293Z,8.47
2019-04-10T10:33:21.594Z,8.59
2019-04-10T10:34:20.775Z,8.74
2019-04-10T10:35:21.026Z,8.91
2019-04-10T10:36:21.791Z,8.94
2019-04-10T10:37:21.879Z,9.53
2019-04-10T10:38:21.164Z,8.95
2019-04-10T10:39:21.165Z,8.55
2019-04-10T10:40:20.852Z,8.44
2019-04-10T10:41:20.856Z,7.80
2019-04-10T10:42:21.344Z,7.80
2019-04-10T10:43:20.887Z,7.93
2019-04-10T10:44:21.809Z,7.77
2019-04-10T10:45:20.908Z,7.43
2019-04-10T10:46:20.917Z,6.98
2019-04-10T10:47:22.169Z,6.71
2019-04-10T10:48:21.926Z,6.76
2019-04-10T10:49:20.958Z,7.02
2019-04-10T10:50:22.108Z,6.52
2019-04-10T10:51:20.971Z,6.66
2019-04-10T10:52:21.554Z,6.66
2019-04-10T10:53:21.955Z,6.46
2019-04-10T10:54:21.205Z,6.33
2019-04-10T10:55:21.357Z,6.49
2019-04-10T10:56:21.026Z,6.99
2019-04-10T10:57:21.035Z,7.15
2019-04-10T10:58:21.817Z,7.25
2019-04-10T10:59:21.802Z,7.15
2019-04-10T11:00:21.068Z,6.97
2019-04-10T11:01:22.023Z,6.40
2019-04-10T11:02:21.307Z,6.51
2019-04-10T11:03:22.349Z,6.21
2019-04-10T11:04:21.125Z,6.58
2019-04-10T11:05:21.203Z,7.21
2019-04-10T11:06:21.134Z,7.55
2019-04-10T11:07:21.146Z,7.46
2019-04-10T11:08:22.072Z,7.35
2019-04-10T11:09:21.162Z,7.53
2019-04-10T11:10:24.455Z,7.57
2019-04-10T11:11:22.610Z,7.68
2019-04-10T11:12:21.983Z,6.98
2019-04-10T11:13:22.324Z,6.85
2019-04-10T11:14:21.541Z,6.88
2019-04-10T11:15:21.227Z,6.99
2019-04-10T11:16:21.242Z,6.49
2019-04-10T11:17:22.247Z,6.69
2019-04-10T11:18:22.243Z,6.79
2019-04-10T11:19:21.278Z,6.95
2019-04-10T11:20:21.533Z,7.13
2019-04-10T11:21:22.732Z,7.09
2019-04-10T11:22:22.957Z,7.21
2019-04-10T11:23:22.129Z,7.35
2019-04-10T11:24:21.322Z,7.53
2019-04-10T11:25:22.149Z,7.72
2019-04-10T11:26:24.014Z,7.85
2019-04-10T11:27:21.393Z,7.63
2019-04-10T11:28:22.715Z,7.61
2019-04-10T11:29:22.022Z,7.53
2019-04-10T11:30:22.441Z,7.12
2019-04-10T11:31:23.626Z,6.91
2019-04-10T11:32:22.164Z,6.80
2019-04-10T11:33:22.384Z,6.95
2019-04-10T11:34:22.600Z,7.21
2019-04-10T11:35:21.906Z,7.39
2019-04-10T11:36:21.461Z,7.27
2019-04-10T11:37:31.779Z,6.69
2019-04-10T11:38:21.667Z,6.94
2019-04-10T11:39:26.035Z,6.91
2019-04-10T11:40:23.340Z,6.97
2019-04-10T11:41:23.152Z,6.89
2019-04-10T11:42:22.641Z,6.81
2019-04-10T11:43:21.745Z,6.74
2019-04-10T11:44:21.751Z,6.87
2019-04-10T11:45:23.005Z,6.74
2019-04-10T11:46:22.737Z,6.73
2019-04-10T11:47:23.624Z,6.67
2019-04-10T11:48:22.997Z,6.43
2019-04-10T11:49:22.922Z,6.25
2019-04-10T11:50:22.469Z,6.40
2019-04-10T11:51:23.513Z,6.33
2019-04-10T11:52:33.036Z,6.46
2019-04-10T11:53:21.632Z,6.66
2019-04-10T11:54:26.426Z,6.34
2019-04-10T11:55:25.817Z,6.37
2019-04-10T11:56:23.504Z,6.56
2019-04-10T11:57:22.878Z,6.69
2019-04-10T11:58:22.406Z,7.02
2019-04-10T11:59:23.726Z,7.07
2019-04-10T12:00:23.727Z,7.16
2019-04-10T12:01:24.561Z,6.91
2019-04-10T12:02:24.919Z,6.67
2019-04-10T12:03:22.637Z,6.77
2019-04-10T12:04:23.096Z,6.51
2019-04-10T12:05:22.095Z,6.70
2019-04-10T12:06:25.007Z,6.94
2019-04-10T12:07:53.024Z,6.97
2019-04-10T12:10:08.518Z,6.62
2019-04-10T12:11:22.865Z,7.15
2019-04-10T12:12:21.828Z,7.24
2019-04-10T12:13:22.032Z,7.02
2019-04-10T12:14:21.847Z,6.95
2019-04-10T12:15:21.857Z,6.80
2019-04-10T12:16:23.058Z,6.59
2019-04-10T12:17:22.141Z,6.25
2019-04-10T12:18:22.541Z,5.89
2019-04-10T12:19:24.058Z,6.14
2019-04-10T12:20:21.916Z,6.31
2019-04-10T12:21:21.932Z,6.58
2019-04-10T12:22:21.928Z,6.77
2019-04-10T12:23:23.026Z,6.99
2019-04-10T12:24:21.952Z,7.23
2019-04-10T12:25:22.915Z,7.07
2019-04-10T12:26:21.969Z,7.09
2019-04-10T12:27:23.044Z,7.10
2019-04-10T12:28:22.182Z,7.15
2019-04-10T12:29:22.543Z,6.89
2019-04-10T12:30:22.010Z,6.85
2019-04-10T12:31:22.020Z,6.95
2019-04-10T12:32:23.034Z,6.95
2019-04-10T12:33:22.252Z,6.99
2019-04-10T12:34:22.457Z,7.13
2019-04-10T12:35:22.642Z,6.80
2019-04-10T12:36:22.553Z,6.70
2019-04-10T12:37:22.080Z,6.59
2019-04-10T12:38:22.093Z,6.62
2019-04-10T12:39:22.686Z,6.66
2019-04-10T12:40:22.112Z,6.52
2019-04-10T12:41:22.121Z,6.55
2019-04-10T12:42:22.134Z,6.40
2019-04-10T12:43:23.163Z,6.25
2019-04-10T12:44:23.163Z,6.08
2019-04-10T12:45:22.296Z,6.08
2019-04-10T12:46:22.174Z,6.11
2019-04-10T12:47:22.182Z,6.34
2019-04-10T12:48:23.047Z,6.06
2019-04-10T12:49:22.202Z,6.19
2019-04-10T12:50:22.579Z,6.12
2019-04-10T12:51:22.226Z,6.28
2019-04-10T12:52:22.738Z,6.25
2019-04-10T12:53:23.236Z,6.28
2019-04-10T12:54:22.258Z,6.08
2019-04-10T12:55:22.266Z,5.82
2019-04-10T12:56:22.277Z,6.03
2019-04-10T12:57:23.123Z,5.96
2019-04-10T12:58:22.516Z,5.81
2019-04-10T12:59:23.518Z,5.94
2019-04-10T13:00:23.540Z,6.03
2019-04-10T13:01:22.733Z,5.97
2019-04-10T13:02:22.571Z,6.04
2019-04-10T13:03:23.077Z,6.12
2019-04-10T13:04:22.378Z,6.34
2019-04-10T13:05:22.363Z,6.06
2019-04-10T13:06:22.377Z,5.90
2019-04-10T13:07:23.362Z,6.08
2019-04-10T13:08:28.752Z,6.09
2019-04-10T13:09:22.401Z,5.97
2019-04-10T13:10:23.165Z,5.64
2019-04-10T13:11:22.600Z,5.61
2019-04-10T13:12:23.006Z,5.78
2019-04-10T13:13:22.444Z,5.91
2019-04-10T13:14:22.451Z,5.82
2019-04-10T13:15:23.390Z,5.72
2019-04-10T13:16:23.747Z,5.82
2019-04-10T13:17:22.769Z,5.99
2019-04-10T13:18:22.599Z,6.04
2019-04-10T13:19:22.503Z,5.99
2019-04-10T13:20:22.515Z,6.06